Mercs Mahaweli — 4RBQ — position and weather

sailwx.info

Track history (hours):
 
Tides and Currents Weather Stations Pressure Air Temp Water Temp Dewpoint Dewpoint Depression Visibility Wind Speed Wind Dir Waves Ship Positions

Mercs Mahaweli

Last reported at 2018-May-28 09:30 UTC. Time now 2018-May-28 09:30 UTC.
Position N 52°15' E 003°16'.

Length 140 m; draft 8.2 m.

Type: Cargo ship. MMSI: 417222330.

Date/timePositionNaut miles runAvg speedWind from/ knotsBaromVisibWave heightAir tempDewpointWater temp
2018-May-28 09:30N 52°15' E 003°16'813.3
2018-May-28 08:55N 52°09' E 003°09'614.0
2018-May-28 08:30N 52°04' E 003°04'612.1
2018-May-28 07:59N 51°60' E 002°57'611.7
2018-May-28 07:30N 51°56' E 002°49'611.6
2018-May-28 06:59N 51°51' E 002°43'711.7
2018-May-28 06:21N 51°46' E 002°36'512.1
2018-May-28 05:59N 51°42' E 002°31'612.4
2018-May-28 05:30N 51°38' E 002°24'612.7
2018-May-28 05:00N 51°33' E 002°17'713.2
2018-May-28 04:30N 51°29' E 002°10'713.7
2018-May-28 04:00N 51°23' E 002°03'713.9
2018-May-28 03:30N 51°18' E 001°56'714.2
2018-May-28 03:01N 51°13' E 001°48'714.4
2018-May-28 02:30N 51°07' E 001°41'714.6
2018-May-28 02:00N 51°01' E 001°34'3913.9
2018-May-27 23:11N 50°29' E 000°59'2414.2
2018-May-27 21:31N 50°23' E 000°23'314.7
2018-May-27 21:18N 50°22' E 000°18'414.9
2018-May-27 21:00N 50°21' E 000°12'815.2
2018-May-27 20:30N 50°19' E 000°00'815.6
2018-May-27 20:00N 50°17' W 000°11'1116.0
2018-May-27 19:19N 50°14' W 000°28'516.1
2018-May-27 19:00N 50°13' W 000°36'1516.5
2018-May-27 18:07N 50°08' W 000°57'516.6
2018-May-27 17:50N 50°07' W 001°04'3215.5
2018-May-27 15:46N 49°59' W 001°53'413.8
2018-May-27 15:30N 49°58' W 001°58'713.6
2018-May-27 15:00N 49°56' W 002°09'3811.9
2018-May-27 11:50N 49°46' W 003°05'36810.5
2018-May-26 00:45N 43°41' W 004°11'314.0
2018-May-26 00:30N 43°40' W 004°06'713.7
2018-May-26 00:00N 43°36' W 003°58'510.5
2018-May-25 23:30N 43°34' W 003°52'4 7.8
2018-May-25 23:01N 43°32' W 003°47'4 6.6
2018-May-25 22:20N 43°27' W 003°48'1 0.4
2018-May-25 20:46N 43°27' W 003°49'0 0.0
2018-May-25 20:11N 43°27' W 003°49'5 0.8
2018-May-25 14:01N 43°31' W 003°45'0 7.2
2018-May-25 14:00N 43°31' W 003°45'611.1
2018-May-25 13:30N 43°34' W 003°52'4214.9
2018-May-25 10:39N 43°46' W 004°48'2315.4
2018-May-25 09:10N 43°48' W 005°20'315.6
2018-May-25 09:00N 43°48' W 005°24'915.5
2018-May-25 08:25N 43°49' W 005°36'615.4
2018-May-25 08:00N 43°49' W 005°45'815.0
2018-May-25 07:27N 43°50' W 005°57'30710.9
2018-May-24 03:17N 39°36' W 009°48'615.2
2018-May-24 02:55N 39°31' W 009°48'615.2
2018-May-24 02:30N 39°24' W 009°49'815.0
2018-May-24 02:00N 39°17' W 009°50'815.0
2018-May-24 01:30N 39°09' W 009°50'715.1
2018-May-24 01:00N 39°02' W 009°51'815.2
2018-May-24 00:30N 38°54' W 009°52'715.0
2018-May-24 00:00N 38°47' W 009°52'714.6
2018-May-23 23:31N 38°40' W 009°50'714.7
2018-May-23 23:00N 38°33' W 009°47'714.6
2018-May-23 22:30N 38°26' W 009°43'714.4
2018-May-23 22:00N 38°19' W 009°40'714.4
2018-May-23 21:30N 38°12' W 009°38'714.6
2018-May-23 21:00N 38°05' W 009°36'714.6
2018-May-23 20:31N 37°58' W 009°34'814.6
2018-May-23 19:59N 37°50' W 009°33'714.5
2018-May-23 19:30N 37°44' W 009°31'714.4
2018-May-23 19:00N 37°37' W 009°30'714.6
2018-May-23 18:30N 37°29' W 009°28'5113.4
2018-May-23 14:44N 36°43' W 009°03'313.9
2018-May-23 14:30N 36°42' W 008°59'16814.6
2018-May-23 03:02N 35°58' W 005°38'114.0
2018-May-23 02:58N 35°58' W 005°37'613.1
2018-May-23 02:31N 35°59' W 005°30'612.1
2018-May-23 02:01N 36°01' W 005°23'611.5
2018-May-23 01:30N 36°03' W 005°16'713.1
2018-May-23 01:00N 36°07' W 005°10'  
Track history (hours):
 
Tides and Currents Weather Stations Pressure Air Temp Water Temp Dewpoint Dewpoint Depression Visibility Wind Speed Wind Dir Waves Ship Positions

Mercs Mahaweli

Last reported at 2018-May-28 09:30 UTC. Time now 2018-May-28 09:30 UTC.
Position N 52°15' E 003°16'.

Length 140 m; draft 8.2 m.

Type: Cargo ship. MMSI: 417222330.

Date/timePositionNaut miles runAvg speedWind from/ knotsBaromVisibWave heightAir tempDewpointWater temp
2018-May-28 09:30N 52°15' E 003°16'813.3
2018-May-28 08:55N 52°09' E 003°09'614.0
2018-May-28 08:30N 52°04' E 003°04'612.1
2018-May-28 07:59N 51°60' E 002°57'611.7
2018-May-28 07:30N 51°56' E 002°49'611.6
2018-May-28 06:59N 51°51' E 002°43'711.7
2018-May-28 06:21N 51°46' E 002°36'512.1
2018-May-28 05:59N 51°42' E 002°31'612.4
2018-May-28 05:30N 51°38' E 002°24'612.7
2018-May-28 05:00N 51°33' E 002°17'713.2
2018-May-28 04:30N 51°29' E 002°10'713.7
2018-May-28 04:00N 51°23' E 002°03'713.9
2018-May-28 03:30N 51°18' E 001°56'714.2
2018-May-28 03:01N 51°13' E 001°48'714.4
2018-May-28 02:30N 51°07' E 001°41'714.6
2018-May-28 02:00N 51°01' E 001°34'3913.9
2018-May-27 23:11N 50°29' E 000°59'2414.2
2018-May-27 21:31N 50°23' E 000°23'314.7
2018-May-27 21:18N 50°22' E 000°18'414.9
2018-May-27 21:00N 50°21' E 000°12'815.2
2018-May-27 20:30N 50°19' E 000°00'815.6
2018-May-27 20:00N 50°17' W 000°11'1116.0
2018-May-27 19:19N 50°14' W 000°28'516.1
2018-May-27 19:00N 50°13' W 000°36'1516.5
2018-May-27 18:07N 50°08' W 000°57'516.6
2018-May-27 17:50N 50°07' W 001°04'3215.5
2018-May-27 15:46N 49°59' W 001°53'413.8
2018-May-27 15:30N 49°58' W 001°58'713.6
2018-May-27 15:00N 49°56' W 002°09'3811.9
2018-May-27 11:50N 49°46' W 003°05'36810.5
2018-May-26 00:45N 43°41' W 004°11'314.0
2018-May-26 00:30N 43°40' W 004°06'713.7
2018-May-26 00:00N 43°36' W 003°58'510.5
2018-May-25 23:30N 43°34' W 003°52'4 7.8
2018-May-25 23:01N 43°32' W 003°47'4 6.6
2018-May-25 22:20N 43°27' W 003°48'1 0.4
2018-May-25 20:46N 43°27' W 003°49'0 0.0
2018-May-25 20:11N 43°27' W 003°49'5 0.8
2018-May-25 14:01N 43°31' W 003°45'0 7.2
2018-May-25 14:00N 43°31' W 003°45'611.1
2018-May-25 13:30N 43°34' W 003°52'4214.9
2018-May-25 10:39N 43°46' W 004°48'2315.4
2018-May-25 09:10N 43°48' W 005°20'315.6
2018-May-25 09:00N 43°48' W 005°24'915.5
2018-May-25 08:25N 43°49' W 005°36'615.4
2018-May-25 08:00N 43°49' W 005°45'815.0
2018-May-25 07:27N 43°50' W 005°57'30710.9
2018-May-24 03:17N 39°36' W 009°48'615.2
2018-May-24 02:55N 39°31' W 009°48'615.2
2018-May-24 02:30N 39°24' W 009°49'815.0
2018-May-24 02:00N 39°17' W 009°50'815.0
2018-May-24 01:30N 39°09' W 009°50'715.1
2018-May-24 01:00N 39°02' W 009°51'815.2
2018-May-24 00:30N 38°54' W 009°52'715.0
2018-May-24 00:00N 38°47' W 009°52'714.6
2018-May-23 23:31N 38°40' W 009°50'714.7
2018-May-23 23:00N 38°33' W 009°47'714.6
2018-May-23 22:30N 38°26' W 009°43'714.4
2018-May-23 22:00N 38°19' W 009°40'714.4
2018-May-23 21:30N 38°12' W 009°38'714.6
2018-May-23 21:00N 38°05' W 009°36'714.6
2018-May-23 20:31N 37°58' W 009°34'814.6
2018-May-23 19:59N 37°50' W 009°33'714.5
2018-May-23 19:30N 37°44' W 009°31'714.4
2018-May-23 19:00N 37°37' W 009°30'714.6
2018-May-23 18:30N 37°29' W 009°28'5113.4
2018-May-23 14:44N 36°43' W 009°03'313.9
2018-May-23 14:30N 36°42' W 008°59'16814.6
2018-May-23 03:02N 35°58' W 005°38'114.0
2018-May-23 02:58N 35°58' W 005°37'613.1
2018-May-23 02:31N 35°59' W 005°30'612.1
2018-May-23 02:01N 36°01' W 005°23'611.5
2018-May-23 01:30N 36°03' W 005°16'713.1
2018-May-23 01:00N 36°07' W 005°10'  

Dump ship's entire track history